Time;durP1;ratioP1;P1;durP2;ratioP2;P2;SDS_P1;SDS_P2;PMS_P1;PMS_P2;Temp;Humidity;BMP_temperature;BMP_pressure;BME280_temperature;BME280_humidity;BME280_pressure;Samples;Min_cycle;Max_cycle;Signal;HPM_P1;HPM_P2
2021/12/31 00:02:40;;;;;;;;;74.75;59.00;;;;;-1.85;82.97;101769.50;6246272;23;8781;-66
2021/12/31 00:05:35;;;;;;;;;75.00;60.50;;;;;-1.96;83.14;101762.94;6245098;23;8785;-66
2021/12/31 00:08:31;;;;;;;;;71.50;58.50;;;;;-1.92;83.20;101758.72;6244816;23;8778;-66
2021/12/31 00:11:27;;;;;;;;;76.75;59.75;;;;;-1.92;83.00;101763.31;6246027;23;8793;-66
2021/12/31 00:14:22;;;;;;;;;69.67;53.00;;;;;-1.86;84.13;101762.41;6244867;23;8825;-66
2021/12/31 00:17:18;;;;;;;;;69.33;55.67;;;;;-1.88;82.85;101762.66;6244920;23;8797;-65
2021/12/31 00:20:17;;;;;;;;;71.67;52.00;;;;;-1.91;83.34;101762.28;6224313;23;9594;-66
2021/12/31 00:23:15;;;;;;;;;75.00;55.00;;;;;-1.89;83.16;101761.00;6244805;23;9483;-65
2021/12/31 00:26:11;;;;;;;;;75.33;61.33;;;;;-2.07;83.73;101758.22;6226032;23;8788;-66
2021/12/31 00:29:07;;;;;;;;;67.00;58.00;;;;;-1.91;83.78;101754.16;6244651;23;9597;-66
2021/12/31 00:32:03;;;;;;;;;76.00;62.75;;;;;-1.91;83.36;101756.84;6244630;23;8858;-65
2021/12/31 00:34:58;;;;;;;;;74.75;62.50;;;;;-1.98;82.78;101743.34;6244726;23;8789;-66
2021/12/31 00:37:54;;;;;;;;;72.00;57.00;;;;;-2.03;83.37;101745.88;6244914;23;8785;-66
2021/12/31 00:40:50;;;;;;;;;71.25;56.50;;;;;-1.97;84.24;101745.00;6225458;23;8797;-66
2021/12/31 00:43:45;;;;;;;;;61.67;53.33;;;;;-1.93;83.94;101745.38;6244574;23;9472;-65
2021/12/31 00:46:41;;;;;;;;;76.75;61.50;;;;;-1.91;83.87;101741.41;6244759;23;8820;-65
2021/12/31 00:49:37;;;;;;;;;73.75;58.75;;;;;-1.85;83.21;101748.63;6215242;23;8787;-65
2021/12/31 00:52:32;;;;;;;;;64.67;51.33;;;;;-1.80;83.71;101740.66;6215353;23;8838;-66
2021/12/31 00:55:28;;;;;;;;;69.67;59.33;;;;;-1.88;83.74;101737.41;6215222;23;8775;-65
2021/12/31 00:58:23;;;;;;;;;67.00;53.33;;;;;-1.84;83.34;101744.91;6213305;23;8791;-66
2021/12/31 01:01:21;;;;;;;;;77.33;59.33;;;;;-1.90;83.51;101744.94;6215358;23;8826;-65
2021/12/31 01:04:17;;;;;;;;;59.33;51.67;;;;;-1.81;83.01;101739.00;6214998;23;8889;-65
2021/12/31 01:07:12;;;;;;;;;68.67;53.67;;;;;-1.82;83.35;101725.69;6215005;23;8779;-66
2021/12/31 01:10:13;;;;;;;;;67.67;57.00;;;;;-1.78;83.35;101732.31;6214871;23;8926;-66
2021/12/31 01:13:13;;;;;;;;;71.00;59.33;;;;;-1.87;83.22;101730.94;6215124;23;8779;-65
2021/12/31 01:16:09;;;;;;;;;58.67;48.33;;;;;-1.85;83.29;101723.41;6215125;23;8813;-66
2021/12/31 01:22:00;;;;;;;;;72.50;59.00;;;;;-1.86;82.91;101713.63;6215110;23;8814;-66
2021/12/31 01:24:56;;;;;;;;;68.67;51.67;;;;;-1.90;83.55;101715.97;6215006;23;8811;-66
2021/12/31 01:27:52;;;;;;;;;67.67;54.00;;;;;-1.86;83.43;101719.88;6215087;23;8788;-67
2021/12/31 01:30:47;;;;;;;;;74.33;58.67;;;;;-1.96;83.64;101708.72;6214588;23;8790;-67
2021/12/31 01:33:43;;;;;;;;;69.00;58.25;;;;;-1.92;83.63;101706.38;6214946;23;8933;-66
2021/12/31 01:36:39;;;;;;;;;63.00;54.00;;;;;-1.85;83.31;101707.97;6212989;23;8803;-66
2021/12/31 01:39:35;;;;;;;;;70.67;54.00;;;;;-1.78;83.48;101705.19;6232225;23;8783;-66
2021/12/31 01:42:33;;;;;;;;;71.75;60.50;;;;;-1.81;82.67;101705.66;6214887;23;8910;-66
2021/12/31 01:45:32;;;;;;;;;70.67;57.33;;;;;-1.87;82.96;101710.06;6214904;23;8803;-66
2021/12/31 01:48:37;;;;;;;;;79.50;58.50;;;;;-1.75;83.42;101715.59;6232176;23;8808;-66
2021/12/31 01:51:33;;;;;;;;;87.00;66.75;;;;;-1.86;83.79;101728.00;6243721;23;9400;-66
2021/12/31 01:54:30;;;;;;;;;73.25;53.25;;;;;-2.05;83.48;101734.44;6244103;23;8787;-66
2021/12/31 01:57:26;;;;;;;;;93.25;71.00;;;;;-2.05;83.73;101732.56;6243943;23;8796;-66
2021/12/31 02:00:23;;;;;;;;;81.75;65.50;;;;;-2.10;83.38;101721.53;6243881;23;9526;-66
2021/12/31 02:03:20;;;;;;;;;80.50;64.00;;;;;-2.00;83.86;101735.41;6244115;23;8773;-66
2021/12/31 02:06:15;;;;;;;;;78.50;63.25;;;;;-1.96;83.76;101736.66;6244054;23;8769;-66
2021/12/31 02:09:12;;;;;;;;;97.50;60.00;;;;;-1.96;83.85;101731.22;6244033;23;8801;-66
2021/12/31 02:12:08;;;;;;;;;94.25;70.75;;;;;-1.82;83.43;101731.09;6243930;23;8781;-66
2021/12/31 02:15:04;;;;;;;;;89.00;67.00;;;;;-1.75;83.14;101731.88;6243907;23;8786;-66
2021/12/31 02:18:02;;;;;;;;;65.00;53.75;;;;;-1.98;83.32;101716.25;6225100;23;8769;-66
2021/12/31 02:20:57;;;;;;;;;52.75;44.50;;;;;-1.86;83.42;101727.16;6245307;23;8882;-66
2021/12/31 02:23:56;;;;;;;;;77.50;60.75;;;;;-1.93;83.41;101723.69;6246080;23;8805;-66
2021/12/31 02:26:52;;;;;;;;;78.75;60.50;;;;;-1.89;83.49;101720.31;6247126;23;8781;-65
2021/12/31 02:29:47;;;;;;;;;87.75;67.25;;;;;-1.83;84.45;101710.47;6245962;23;8781;-66
2021/12/31 02:32:43;;;;;;;;;79.50;64.00;;;;;-1.85;84.07;101705.25;6247218;22;8789;-65
2021/12/31 02:35:39;;;;;;;;;93.00;67.50;;;;;-1.87;83.99;101710.06;6245924;23;9534;-68
2021/12/31 02:38:35;;;;;;;;;94.50;69.75;;;;;-1.94;83.70;101698.47;6245790;23;8899;-65
2021/12/31 02:41:30;;;;;;;;;93.75;75.25;;;;;-1.87;83.85;101692.97;6245934;23;8770;-65
2021/12/31 02:44:26;;;;;;;;;102.25;78.50;;;;;-1.89;84.24;101686.97;6245869;23;8774;-66
2021/12/31 02:47:21;;;;;;;;;93.50;73.50;;;;;-1.93;84.38;101685.72;6245790;23;9499;-66
2021/12/31 02:50:18;;;;;;;;;69.50;51.00;;;;;-1.92;85.02;101680.06;6245425;23;8813;-65
2021/12/31 02:53:15;;;;;;;;;117.25;90.00;;;;;-2.03;83.75;101684.38;6246669;23;8777;-66
2021/12/31 02:56:13;;;;;;;;;114.00;88.75;;;;;-1.87;83.95;101687.56;6245641;23;8781;-66
2021/12/31 02:59:10;;;;;;;;;107.00;78.75;;;;;-1.92;83.85;101680.06;6245714;23;8789;-67
2021/12/31 03:02:06;;;;;;;;;101.75;74.75;;;;;-1.87;84.18;101676.72;6245613;23;8789;-66
2021/12/31 03:05:03;;;;;;;;;95.50;72.00;;;;;-1.87;84.09;101679.41;6245572;23;8816;-66
2021/12/31 03:07:59;;;;;;;;;94.00;69.50;;;;;-1.96;84.15;101685.13;6245461;23;8809;-66
2021/12/31 03:10:56;;;;;;;;;96.75;72.75;;;;;-2.08;84.88;101689.63;6245088;23;8912;-68
2021/12/31 03:13:56;;;;;;;;;97.25;74.50;;;;;-2.03;83.87;101686.25;6245360;23;8792;-66
2021/12/31 03:16:52;;;;;;;;;91.50;72.25;;;;;-2.02;84.31;101688.72;6245594;23;8773;-67
2021/12/31 03:19:47;;;;;;;;;84.25;66.00;;;;;-1.96;84.14;101684.31;6245505;23;8800;-66
2021/12/31 03:22:43;;;;;;;;;86.75;70.00;;;;;-1.96;83.82;101687.03;6245509;23;8919;-66
2021/12/31 03:25:39;;;;;;;;;82.75;66.00;;;;;-2.03;83.91;101678.13;6245367;23;8840;-66
2021/12/31 03:28:35;;;;;;;;;73.00;62.00;;;;;-1.84;84.10;101678.97;6225310;23;8785;-67
2021/12/31 03:31:31;;;;;;;;;76.00;61.75;;;;;-1.89;84.70;101666.09;6245017;23;8888;-66
2021/12/31 03:34:26;;;;;;;;;74.75;60.25;;;;;-1.81;84.56;101662.25;6245369;23;8879;-66
2021/12/31 03:37:22;;;;;;;;;70.25;58.50;;;;;-1.98;84.81;101654.72;6245748;23;8789;-66
2021/12/31 03:40:17;;;;;;;;;52.33;48.67;;;;;-1.87;84.79;101647.69;6245194;23;8795;-66
2021/12/31 03:43:14;;;;;;;;;55.33;49.33;;;;;-1.89;84.63;101643.56;6245174;23;8835;-66
2021/12/31 03:46:10;;;;;;;;;60.00;53.33;;;;;-1.92;84.50;101633.16;6245379;23;9467;-66
2021/12/31 03:49:06;;;;;;;;;58.33;50.67;;;;;-1.67;83.60;101630.41;6245013;23;9653;-66
2021/12/31 03:52:02;;;;;;;;;47.33;43.67;;;;;-1.61;83.47;101643.88;6245143;23;8804;-66
2021/12/31 03:54:58;;;;;;;;;41.67;41.67;;;;;-1.63;82.84;101643.25;6245066;23;8789;-65
2021/12/31 03:57:53;;;;;;;;;50.33;47.33;;;;;-1.71;82.91;101628.13;6225283;23;8789;-65
2021/12/31 04:00:49;;;;;;;;;46.00;43.33;;;;;-1.50;82.46;101632.25;6244959;23;8795;-65
2021/12/31 04:03:44;;;;;;;;;56.33;49.00;;;;;-1.55;82.98;101625.84;6245293;23;8770;-66
2021/12/31 04:06:40;;;;;;;;;54.67;47.33;;;;;-1.47;81.88;101629.06;6245176;23;8782;-65
2021/12/31 04:09:36;;;;;;;;;57.00;48.33;;;;;-1.51;81.46;101630.59;6244239;23;9476;-65
2021/12/31 04:12:31;;;;;;;;;48.00;44.33;;;;;-1.60;82.00;101629.25;6244653;23;8797;-65
2021/12/31 04:15:27;;;;;;;;;48.33;45.67;;;;;-1.48;82.44;101643.69;6245015;23;8900;-66
2021/12/31 04:18:25;;;;;;;;;52.33;48.00;;;;;-1.65;82.20;101628.28;6244900;23;8785;-65
2021/12/31 04:21:23;;;;;;;;;45.67;43.33;;;;;-1.61;83.42;101638.47;6244849;23;8804;-65
2021/12/31 04:24:52;;;;;;;;;48.33;42.33;;;;;-1.59;82.55;101632.81;6244716;23;8781;-65
2021/12/31 04:27:46;;;;;;;;;51.00;46.67;;;;;-1.46;81.95;101627.19;6244750;23;8789;-65
2021/12/31 04:30:41;;;;;;;;;46.33;44.33;;;;;-1.51;82.21;101630.59;6244605;23;8793;-64
2021/12/31 04:33:37;;;;;;;;;47.33;44.67;;;;;-1.98;84.34;101634.91;6244453;23;8805;-65
2021/12/31 04:36:33;;;;;;;;;59.00;48.00;;;;;-2.09;84.42;101641.88;6244731;23;8789;-65
2021/12/31 04:39:28;;;;;;;;;67.00;54.00;;;;;-1.92;84.60;101638.59;6244611;23;8773;-65
2021/12/31 04:42:24;;;;;;;;;69.33;52.67;;;;;-1.99;84.79;101634.09;6244274;23;8781;-65
2021/12/31 04:45:20;;;;;;;;;71.00;58.33;;;;;-1.93;84.75;101634.22;6224524;23;8769;-65
2021/12/31 04:48:15;;;;;;;;;60.33;51.67;;;;;-1.96;85.01;101628.19;6244454;23;8806;-65
2021/12/31 04:51:11;;;;;;;;;72.33;57.00;;;;;-1.88;84.85;101628.94;6244505;23;8765;-66
2021/12/31 04:54:14;;;;;;;;;68.50;57.75;;;;;-1.90;84.70;101634.59;6244609;23;8813;-65
2021/12/31 04:57:09;;;;;;;;;83.00;65.75;;;;;-1.91;84.23;101640.25;6244586;23;8774;-65
2021/12/31 05:00:06;;;;;;;;;83.00;61.75;;;;;-1.93;84.61;101645.88;6244596;23;8793;-65
2021/12/31 05:03:10;;;;;;;;;88.50;66.00;;;;;-1.97;85.04;101642.81;6225140;23;8773;-65
2021/12/31 05:06:06;;;;;;;;;80.75;66.25;;;;;-1.92;84.50;101647.53;6244385;23;8808;-65
2021/12/31 05:09:01;;;;;;;;;85.25;66.50;;;;;-1.93;84.61;101656.72;6244313;23;8812;-65
2021/12/31 05:11:57;;;;;;;;;80.00;64.25;;;;;-1.71;84.83;101655.25;6243951;23;8796;-66
2021/12/31 05:14:54;;;;;;;;;69.67;57.00;;;;;-1.75;84.27;101655.94;6243749;23;9521;-65
2021/12/31 05:17:49;;;;;;;;;67.67;54.67;;;;;-2.03;84.57;101664.56;6244394;23;9519;-64
2021/12/31 05:20:45;;;;;;;;;70.00;59.33;;;;;-1.76;84.48;101673.25;6244315;23;8781;-65
2021/12/31 05:23:40;;;;;;;;;64.67;53.67;;;;;-1.53;84.01;101670.72;6244032;23;8793;-65
2021/12/31 05:26:36;;;;;;;;;61.67;53.00;;;;;-1.33;82.74;101683.19;6245434;23;8802;-66
2021/12/31 05:29:32;;;;;;;;;40.00;39.00;;;;;-1.33;82.44;101675.88;6244242;23;8797;-65
2021/12/31 05:32:28;;;;;;;;;55.33;48.00;;;;;-1.38;82.28;101675.75;6245209;22;8777;-66
2021/12/31 05:35:24;;;;;;;;;50.00;43.00;;;;;-1.34;82.33;101687.78;6245553;23;8785;-65
2021/12/31 05:38:19;;;;;;;;;55.33;48.33;;;;;-1.36;81.71;101691.81;6224177;23;8892;-65
2021/12/31 05:41:15;;;;;;;;;55.33;47.00;;;;;-1.31;81.65;101691.94;6224853;23;8788;-66
2021/12/31 05:44:11;;;;;;;;;40.67;37.67;;;;;-1.17;80.77;101686.09;6243313;23;8785;-65
2021/12/31 05:47:07;;;;;;;;;62.00;52.67;;;;;-1.29;81.70;101678.97;6243786;22;9511;-66
2021/12/31 05:50:05;;;;;;;;;53.67;48.00;;;;;-1.27;81.86;101682.28;6225383;23;9526;-66
2021/12/31 05:53:01;;;;;;;;;54.33;47.33;;;;;-1.29;81.37;101668.13;6243476;23;8819;-66
2021/12/31 05:55:56;;;;;;;;;58.33;48.33;;;;;-1.30;81.41;101667.31;6243239;23;8821;-65
2021/12/31 05:58:52;;;;;;;;;62.67;50.33;;;;;-1.37;81.90;101671.16;6243979;23;8890;-65
2021/12/31 06:01:48;;;;;;;;;51.33;45.33;;;;;-1.27;82.11;101672.25;6243968;23;8866;-67
2021/12/31 06:04:43;;;;;;;;;41.67;41.33;;;;;-1.28;82.09;101672.50;6243758;23;8781;-66
2021/12/31 06:07:39;;;;;;;;;53.67;48.00;;;;;-1.30;82.12;101672.72;6243765;23;8821;-66
2021/12/31 06:10:39;;;;;;;;;56.33;48.00;;;;;-1.31;81.50;101675.66;6243962;23;8877;-66
2021/12/31 06:13:38;;;;;;;;;64.67;52.00;;;;;-1.30;82.11;101674.63;6243738;23;8770;-66
2021/12/31 06:16:38;;;;;;;;;58.33;52.67;;;;;-1.54;82.81;101677.16;6243513;23;8797;-67
2021/12/31 06:19:35;;;;;;;;;50.67;46.00;;;;;-1.70;84.07;101672.34;6223944;23;8811;-66
2021/12/31 06:22:31;;;;;;;;;48.67;46.00;;;;;-1.59;83.59;101673.50;6244919;22;8769;-66
2021/12/31 06:25:30;;;;;;;;;53.67;46.00;;;;;-1.63;82.76;101681.25;6243707;23;9633;-66
2021/12/31 06:28:26;;;;;;;;;52.67;47.67;;;;;-1.61;84.30;101681.88;6243887;23;8817;-64
2021/12/31 06:31:22;;;;;;;;;36.00;29.33;;;;;-1.58;83.63;101683.28;6243917;23;9508;-64
2021/12/31 06:34:17;;;;;;;;;50.33;48.00;;;;;-1.59;83.43;101681.63;6223486;23;8785;-65
2021/12/31 06:37:13;;;;;;;;;57.67;52.00;;;;;-1.53;84.07;101683.44;6243440;23;8770;-65
2021/12/31 06:40:11;;;;;;;;;39.33;37.67;;;;;-1.53;83.80;101678.84;6243505;23;8923;-64
2021/12/31 06:43:06;;;;;;;;;39.00;37.67;;;;;-1.54;83.68;101679.03;6243579;23;8809;-65
2021/12/31 06:46:02;;;;;;;;;53.67;48.33;;;;;-1.50;83.78;101678.38;6241095;23;8907;-65
2021/12/31 06:48:58;;;;;;;;;36.33;30.00;;;;;-1.52;82.97;101690.53;6242774;23;8875;-66
2021/12/31 06:51:53;;;;;;;;;40.67;38.33;;;;;-1.40;83.56;101686.81;6243675;23;8883;-66
2021/12/31 06:54:49;;;;;;;;;44.00;42.00;;;;;-1.37;82.37;101679.28;6243553;23;8807;-65
2021/12/31 06:57:46;;;;;;;;;36.67;34.00;;;;;-1.41;82.17;101666.16;6243198;23;8782;-66
2021/12/31 07:00:42;;;;;;;;;25.67;25.67;;;;;-1.45;82.84;101666.88;6243650;23;8781;-66
2021/12/31 07:03:37;;;;;;;;;43.67;43.67;;;;;-1.41;83.43;101657.19;6243133;23;8800;-67
2021/12/31 07:06:33;;;;;;;;;52.00;48.00;;;;;-1.31;82.77;101670.22;6243612;23;8770;-66
2021/12/31 07:09:30;;;;;;;;;48.33;46.00;;;;;-1.42;82.84;101667.22;6245069;23;8823;-66
2021/12/31 07:12:25;;;;;;;;;39.33;37.67;;;;;-1.36;83.45;101680.94;6244979;23;8824;-67
2021/12/31 07:15:21;;;;;;;;;41.00;39.33;;;;;-1.26;82.98;101681.22;6244846;23;8789;-66
2021/12/31 07:18:18;;;;;;;;;44.00;42.67;;;;;-1.31;82.67;101672.94;6244225;23;8939;-66
2021/12/31 07:21:14;;;;;;;;;34.33;34.33;;;;;-1.25;83.07;101674.75;6244875;23;9472;-66
2021/12/31 07:24:10;;;;;;;;;43.67;37.00;;;;;-1.23;83.37;101678.03;6245117;23;8809;-66
2021/12/31 07:27:05;;;;;;;;;36.67;36.00;;;;;-1.14;83.88;101684.84;6244945;23;8880;-67
2021/12/31 07:30:01;;;;;;;;;51.00;41.67;;;;;-1.24;84.04;101679.94;6244992;23;8777;-66
2021/12/31 07:32:56;;;;;;;;;106.75;81.25;;;;;-1.16;83.70;101676.06;6243988;23;8999;-68
2021/12/31 07:35:53;;;;;;;;;40.00;38.33;;;;;-1.04;83.72;101673.44;6241413;23;8808;-66
2021/12/31 07:38:57;;;;;;;;;65.67;52.00;;;;;-0.96;83.80;101670.38;6244878;23;8786;-67
2021/12/31 07:41:53;;;;;;;;;48.67;45.00;;;;;-0.93;84.68;101675.34;6226160;23;9514;-66
2021/12/31 07:44:49;;;;;;;;;51.00;45.33;;;;;-0.93;83.71;101681.59;6244824;23;8800;-66
2021/12/31 07:47:44;;;;;;;;;49.00;48.00;;;;;-0.93;84.61;101669.91;6244519;23;8781;-67
2021/12/31 07:50:40;;;;;;;;;75.33;59.00;;;;;-0.99;84.82;101668.97;6244668;23;8797;-66
2021/12/31 07:53:36;;;;;;;;;62.33;53.33;;;;;-0.95;86.06;101670.16;6244186;23;8797;-66
2021/12/31 07:56:31;;;;;;;;;47.67;41.00;;;;;-1.11;85.57;101673.50;6224813;23;8878;-66
2021/12/31 07:59:27;;;;;;;;;45.67;45.00;;;;;-1.07;86.06;101660.28;6244986;23;8860;-66
2021/12/31 08:02:22;;;;;;;;;47.00;43.00;;;;;-1.09;86.09;101665.97;6244700;23;8778;-67
2021/12/31 08:05:18;;;;;;;;;40.67;39.33;;;;;-1.06;86.19;101656.53;6244991;23;8773;-66
2021/12/31 08:08:13;;;;;;;;;43.00;36.33;;;;;-1.00;87.22;101656.44;6244424;23;8789;-65
2021/12/31 08:11:09;;;;;;;;;43.00;39.67;;;;;-0.90;86.82;101654.00;6243500;23;8800;-66
2021/12/31 08:14:05;;;;;;;;;39.00;35.33;;;;;-0.96;86.21;101657.63;6242358;23;8840;-66
2021/12/31 08:17:01;;;;;;;;;38.33;34.67;;;;;-0.94;86.91;101649.25;6242190;23;8785;-66
2021/12/31 08:19:56;;;;;;;;;52.00;48.00;;;;;-0.97;87.47;101642.41;6244517;23;8859;-65
2021/12/31 08:22:25;;;;;;;;;54.33;49.33;;;;;-0.90;87.31;101636.88;6253463;23;8785;-67
2021/12/31 08:25:21;;;;;;;;;39.00;39.00;;;;;-0.92;87.78;101638.97;6225981;23;8793;-66
2021/12/31 08:28:17;;;;;;;;;41.33;40.00;;;;;-0.88;87.61;101627.44;6244176;23;8828;-66
2021/12/31 08:31:13;;;;;;;;;40.33;39.33;;;;;-0.84;87.04;101625.09;6224763;23;9512;-68
2021/12/31 08:34:09;;;;;;;;;40.00;39.33;;;;;-0.74;87.14;101629.97;6244036;23;8804;-68
2021/12/31 08:37:05;;;;;;;;;34.00;34.00;;;;;-0.69;86.72;101628.19;6244717;23;8812;-67
2021/12/31 08:40:00;;;;;;;;;42.33;39.00;;;;;-0.65;87.66;101617.69;6244444;23;8774;-67
2021/12/31 08:42:57;;;;;;;;;36.67;33.67;;;;;-0.71;87.35;101618.59;6244415;23;9070;-67
2021/12/31 08:45:52;;;;;;;;;38.33;34.33;;;;;-0.83;88.02;101609.63;6224839;23;8889;-68
2021/12/31 08:48:49;;;;;;;;;42.00;41.33;;;;;-0.69;87.67;101605.63;6245632;22;8793;-67
2021/12/31 08:51:45;;;;;;;;;30.67;30.33;;;;;-0.75;87.63;101606.56;6244576;23;8781;-68
2021/12/31 08:54:40;;;;;;;;;49.00;43.00;;;;;-0.63;87.74;101610.13;6244320;23;8785;-67
2021/12/31 08:57:36;;;;;;;;;31.00;31.00;;;;;-0.57;87.76;101603.75;6244439;23;9547;-67
2021/12/31 09:00:33;;;;;;;;;34.00;33.67;;;;;-0.42;86.42;101609.56;6244526;23;8804;-67
2021/12/31 09:03:28;;;;;;;;;27.00;27.00;;;;;-0.57;86.32;101604.59;6244439;23;8773;-67
2021/12/31 09:06:24;;;;;;;;;25.00;24.33;;;;;-0.38;85.70;101609.94;6244492;23;8801;-67
2021/12/31 09:09:19;;;;;;;;;30.00;27.33;;;;;-0.47;85.38;101605.88;6244169;23;8866;-67
2021/12/31 09:12:15;;;;;;;;;25.00;25.00;;;;;-0.29;85.46;101594.91;6244371;23;8805;-67
2021/12/31 09:15:12;;;;;;;;;24.33;22.67;;;;;-0.51;85.51;101594.66;6224699;23;8777;-67
2021/12/31 09:18:07;;;;;;;;;30.00;28.67;;;;;-0.58;86.36;101580.38;6244334;23;8844;-67
2021/12/31 09:21:03;;;;;;;;;25.00;25.00;;;;;-0.43;85.80;101585.34;6244208;23;8789;-67
2021/12/31 09:23:59;;;;;;;;;21.33;21.33;;;;;-0.68;85.88;101575.53;6245381;23;8781;-67
2021/12/31 09:26:54;;;;;;;;;29.67;29.33;;;;;-0.49;85.93;101572.69;6244329;23;9529;-67
2021/12/31 09:29:50;;;;;;;;;31.67;31.67;;;;;-0.58;85.73;101561.34;6243900;23;8821;-67
2021/12/31 09:32:46;;;;;;;;;36.67;36.67;;;;;-0.57;86.83;101558.38;6223910;23;8777;-67
2021/12/31 09:35:42;;;;;;;;;32.00;27.00;;;;;-0.59;86.62;101556.97;6225435;23;8911;-68
2021/12/31 09:38:37;;;;;;;;;26.33;25.67;;;;;-0.72;87.82;101557.19;6224201;23;8804;-67
2021/12/31 09:41:33;;;;;;;;;17.33;14.67;;;;;-0.57;87.02;101552.13;6244236;23;8801;-67
2021/12/31 09:44:29;;;;;;;;;35.33;29.33;;;;;-0.55;86.69;101547.28;6223947;23;8815;-67
2021/12/31 09:47:24;;;;;;;;;24.00;24.00;;;;;-0.74;87.18;101543.03;6243978;23;9891;-67
2021/12/31 09:50:21;;;;;;;;;36.67;31.00;;;;;-0.92;89.06;101546.66;6244010;23;8871;-66
2021/12/31 09:53:18;;;;;;;;;29.33;27.67;;;;;-0.76;88.20;101540.56;6243988;23;8832;-66
2021/12/31 09:56:14;;;;;;;;;30.00;28.67;;;;;-0.62;88.36;101543.84;6244025;23;8789;-66
2021/12/31 09:59:09;;;;;;;;;29.67;28.67;;;;;-0.44;86.90;101543.75;6244017;23;9538;-67
2021/12/31 10:02:05;;;;;;;;;30.00;26.33;;;;;-0.52;87.04;101535.94;6225084;23;8819;-67
2021/12/31 10:05:03;;;;;;;;;30.67;26.67;;;;;-0.43;87.85;101536.41;6243184;23;9537;-67
2021/12/31 10:07:59;;;;;;;;;39.00;34.67;;;;;-0.78;88.20;101530.97;6244094;23;8928;-67
2021/12/31 10:11:12;;;;;;;;;34.00;34.00;;;;;-0.47;87.94;101522.47;6224111;23;8815;-66
2021/12/31 10:14:08;;;;;;;;;21.00;19.67;;;;;-0.76;88.37;101516.09;6243905;23;8801;-66
2021/12/31 10:17:09;;;;;;;;;27.33;25.67;;;;;-0.71;88.92;101520.81;6244008;23;8860;-66
2021/12/31 10:20:05;;;;;;;;;30.00;29.33;;;;;-0.57;88.89;101528.50;6243721;23;8923;-67
2021/12/31 10:23:15;;;;;;;;;35.00;34.00;;;;;-0.33;88.77;101518.44;6243530;23;8895;-67
2021/12/31 10:26:12;;;;;;;;;30.33;29.33;;;;;-0.25;87.63;101521.84;6223863;23;8781;-67
2021/12/31 10:29:08;;;;;;;;;30.67;30.33;;;;;-0.31;87.64;101518.19;6244501;22;8781;-66
2021/12/31 10:32:16;;;;;;;;;26.33;19.00;;;;;-0.42;88.01;101517.16;6243804;23;8794;-66
2021/12/31 10:35:20;;;;;;;;;30.33;28.67;;;;;-0.56;87.81;101518.44;6225037;23;8789;-67
2021/12/31 10:38:16;;;;;;;;;30.67;29.00;;;;;-0.41;88.00;101512.53;6243902;23;8781;-66
2021/12/31 10:41:11;;;;;;;;;27.00;26.33;;;;;-0.40;87.94;101511.47;6224272;23;8777;-66
2021/12/31 10:44:07;;;;;;;;;36.33;33.33;;;;;-0.25;87.87;101505.53;6245681;23;8817;-69
2021/12/31 10:47:10;;;;;;;;;41.33;33.33;;;;;-0.26;86.77;101498.47;6245675;22;8774;-67
2021/12/31 10:50:09;;;;;;;;;28.00;24.00;;;;;-0.60;86.72;101507.25;6245967;23;8774;-67
2021/12/31 10:53:11;;;;;;;;;28.67;28.67;;;;;-0.40;87.73;101504.13;6225479;23;8785;-67
2021/12/31 10:56:12;;;;;;;;;38.67;34.67;;;;;-0.44;87.68;101505.69;6245775;23;8856;-67
2021/12/31 10:59:07;;;;;;;;;36.33;35.33;;;;;-0.31;87.77;101499.16;6245538;23;8824;-66
2021/12/31 11:02:06;;;;;;;;;29.33;29.33;;;;;-0.39;87.91;101494.91;6245617;23;8808;-66
2021/12/31 11:05:03;;;;;;;;;37.67;33.67;;;;;-0.24;88.64;101499.84;6245631;23;8799;-68
2021/12/31 11:08:01;;;;;;;;;31.33;31.33;;;;;-0.29;87.74;101497.06;6246521;23;8782;-67
2021/12/31 11:10:57;;;;;;;;;41.00;37.33;;;;;-0.14;86.21;101489.22;6245702;23;8824;-67
2021/12/31 11:13:53;;;;;;;;;42.67;41.00;;;;;-0.25;86.66;101484.63;6245399;23;8782;-67
2021/12/31 11:16:49;;;;;;;;;46.33;41.33;;;;;-0.15;86.93;101481.31;6245220;23;8793;-67
2021/12/31 11:19:48;;;;;;;;;44.00;44.00;;;;;-0.08;85.84;101482.81;6245420;23;9495;-66
2021/12/31 11:22:43;;;;;;;;;32.00;32.00;;;;;-0.14;85.22;101482.97;6245401;23;8797;-67
2021/12/31 11:25:56;;;;;;;;;38.33;33.67;;;;;-0.23;85.39;101474.34;6245271;23;8790;-67
2021/12/31 11:28:53;;;;;;;;;33.33;30.00;;;;;-0.05;84.26;101474.19;6245410;23;8815;-66
2021/12/31 11:31:48;;;;;;;;;37.33;37.33;;;;;0.03;83.73;101472.97;6245636;23;9526;-68
2021/12/31 11:34:44;;;;;;;;;38.67;35.33;;;;;0.12;84.24;101470.69;6245388;23;8837;-68
2021/12/31 11:37:43;;;;;;;;;31.00;30.33;;;;;0.19;83.31;101469.47;6245161;23;8793;-68
2021/12/31 11:40:50;;;;;;;;;45.33;41.33;;;;;0.24;83.64;101453.25;6244810;23;8899;-68
2021/12/31 11:44:08;;;;;;;;;32.33;30.00;;;;;-0.17;84.80;101465.22;6244801;23;8861;-67
2021/12/31 11:47:13;;;;;;;;;49.67;46.33;;;;;-0.03;85.29;101468.50;6245217;23;8792;-67
2021/12/31 11:50:24;;;;;;;;;51.33;42.67;;;;;-0.01;85.39;101461.72;6244553;23;8786;-66
2021/12/31 11:53:20;;;;;;;;;44.00;42.00;;;;;0.11;85.07;101458.16;6224692;23;8777;-66
2021/12/31 11:56:47;;;;;;;;;40.33;39.33;;;;;0.07;84.41;101465.13;6244276;23;8774;-68
2021/12/31 11:59:49;;;;;;;;;51.00;44.67;;;;;-0.08;85.77;101458.34;6224979;23;8959;-67
2021/12/31 12:02:44;;;;;;;;;45.67;41.67;;;;;-0.02;86.13;101451.09;6244796;23;9464;-67
2021/12/31 12:05:41;;;;;;;;;37.00;31.67;;;;;-0.13;86.10;101452.81;6245195;23;8807;-68
2021/12/31 12:08:50;;;;;;;;;49.67;45.33;;;;;0.04;86.34;101450.13;6244770;23;8847;-68
2021/12/31 12:12:08;;;;;;;;;23.33;22.00;;;;;0.26;85.11;101445.66;6244981;23;8884;-68
2021/12/31 12:15:23;;;;;;;;;49.67;43.00;;;;;0.07;84.79;101444.19;6225000;23;8793;-68
2021/12/31 12:18:52;;;;;;;;;51.33;44.33;;;;;0.06;85.59;101447.16;6243906;23;8781;-68
2021/12/31 12:21:52;;;;;;;;;52.33;46.33;;;;;0.04;85.43;101452.03;6244730;23;9544;-68
2021/12/31 12:24:49;;;;;;;;;46.33;43.33;;;;;0.19;86.04;101447.72;6243485;23;8818;-68
2021/12/31 12:27:53;;;;;;;;;35.00;33.67;;;;;-0.13;85.62;101454.69;6224670;23;9064;-68
2021/12/31 12:30:59;;;;;;;;;52.67;48.00;;;;;-0.14;86.51;101456.59;6244731;23;8797;-68
2021/12/31 12:33:58;;;;;;;;;38.33;38.33;;;;;-0.14;86.72;101456.59;6244488;23;8777;-67
2021/12/31 12:36:54;;;;;;;;;64.33;49.67;;;;;-0.11;86.82;101455.28;6244425;23;8812;-68
2021/12/31 12:39:57;;;;;;;;;44.00;43.00;;;;;0.10;86.29;101451.91;6243538;23;8868;-68
2021/12/31 12:42:54;;;;;;;;;59.00;48.33;;;;;0.06;86.68;101441.72;6244259;23;8778;-68
2021/12/31 12:45:59;;;;;;;;;39.33;39.33;;;;;0.01;86.79;101439.75;6244170;23;8777;-67
2021/12/31 12:48:57;;;;;;;;;57.67;48.67;;;;;0.20;86.46;101446.63;6243959;23;8789;-69
2021/12/31 12:51:55;;;;;;;;;50.33;47.00;;;;;0.10;86.44;101445.63;6244217;23;8793;-68
2021/12/31 12:55:14;;;;;;;;;55.33;48.67;;;;;0.12;86.73;101448.94;6244251;23;8785;-68
2021/12/31 12:58:20;;;;;;;;;52.67;48.33;;;;;0.23;86.72;101443.44;6244319;23;8947;-68
2021/12/31 13:01:16;;;;;;;;;51.67;48.33;;;;;0.20;86.63;101443.91;6224334;23;8789;-67
2021/12/31 13:04:13;;;;;;;;;62.33;48.33;;;;;0.21;86.42;101442.84;6223515;23;8811;-67
2021/12/31 13:07:10;;;;;;;;;40.00;34.67;;;;;0.04;86.95;101439.25;6243937;23;8813;-67
2021/12/31 13:10:07;;;;;;;;;53.67;48.33;;;;;0.16;87.01;101441.94;6243979;23;8812;-67
2021/12/31 13:13:03;;;;;;;;;54.00;48.00;;;;;0.10;87.27;101445.63;6224816;23;8797;-67
2021/12/31 13:16:00;;;;;;;;;59.33;51.33;;;;;0.27;86.28;101441.06;6244195;23;8872;-68
2021/12/31 13:19:01;;;;;;;;;51.00;45.00;;;;;0.11;86.46;101442.66;6225097;23;9562;-68
2021/12/31 13:22:03;;;;;;;;;41.67;41.67;;;;;0.19;86.79;101436.81;6244120;23;8899;-67
2021/12/31 13:24:58;;;;;;;;;45.67;40.67;;;;;0.14;86.82;101419.56;6244687;23;9503;-67
2021/12/31 13:28:11;;;;;;;;;56.00;47.33;;;;;0.25;87.26;101433.13;6224377;23;8808;-67
2021/12/31 13:31:10;;;;;;;;;52.00;45.00;;;;;0.36;86.41;101425.97;6243531;23;8863;-68
2021/12/31 13:34:22;;;;;;;;;50.00;45.33;;;;;0.41;86.69;101420.63;6243246;23;8785;-68
2021/12/31 13:37:26;;;;;;;;;31.33;31.33;;;;;0.33;86.03;101423.75;6243823;23;8936;-67
2021/12/31 13:40:22;;;;;;;;;33.67;33.33;;;;;0.38;85.83;101425.72;6242918;23;8796;-67